Have a Safe July 4th! 

Flight Track Log - Related Links

Times and Time Zones

All times are in EDT time to prevent confusion due to time zone crossing. See the WWW435 flight status page for this flight to view local times or setup timezone preferences in your user account.

Time Position Orientation Groundspeed Altitude Reporting Facility
EDT Latitude Longitude Course Direction KTS MPH feet Rate Location/Type
Thu 08:51:29 AM 36.0731 -115.1744 269° West 136 157 3,100  Level Los Angeles Center
Thu 08:51:47 AM 36.0728 -115.1933 269° West 167 192 3,600 2,182 Climbing Los Angeles Center
Thu 08:53:08 AM 36.0761 -115.2950 272° West 228 262 6,700 2,681 Climbing Los Angeles Center
Thu 08:54:08 AM 36.1167 -115.3717 303° West 283 326 9,900 2,430 Climbing Los Angeles Center
Thu 08:55:09 AM 36.1900 -115.4322 326° Northwest 306 352 11,600 2,033 Climbing Los Angeles Center
Thu 08:56:09 AM 36.2744 -115.5092 324° Northwest 358 412 14,000 1,488 Climbing Los Angeles Center
Thu 08:57:10 AM 36.3300 -115.6050 306° West 374 430 14,600 1,190 Climbing Los Angeles Center
Thu 08:58:10 AM 36.3933 -115.7169 305° West 390 449 16,400 2,579 Climbing Los Angeles Center
Thu 08:59:11 AM 36.4600 -115.8344 305° West 409 471 19,800 1,785 Climbing Los Angeles Center
Thu 09:00:11 AM 36.5328 -115.9650 305° West 416 479 20,000 99 Climbing Los Angeles Center
Thu 09:01:12 AM 36.6114 -116.0653 314° West 411 473 20,000 -99 Level Los Angeles Center
Thu 09:02:12 AM 36.7117 -116.1253 334° Northwest 404 465 19,800 -694 Descending Los Angeles Center
Thu 09:03:13 AM 36.8114 -116.1875 333° Northwest 400 460 18,600 -1,140 Descending Los Angeles Center
Thu 09:04:13 AM 36.9117 -116.2497 334° Northwest 402 463 17,500 -1,190 Descending Los Angeles Center
Thu 09:05:14 AM 37.0122 -116.3114 334° Northwest 401 461 16,200 -1,339 Descending Los Angeles Center
Thu 09:06:14 AM 37.1114 -116.3744 333° Northwest 400 460 14,800 -1,339 Descending Los Angeles Center
Thu 09:07:15 AM 37.2019 -116.4306 334° Northwest 372 428 13,500 -1,289 Descending Los Angeles Center
Thu 09:08:15 AM 37.2875 -116.4867 332° Northwest 352 405 12,200 -1,289 Descending Los Angeles Center
Thu 09:09:16 AM 37.3719 -116.5394 334° Northwest 341 392 10,900 -885 Descending Los Angeles Center
Thu 09:10:17 AM 37.4533 -116.5922 333° Northwest 332 382 10,400 -248 Descending Los Angeles Center
Thu 09:11:17 AM 37.5281 -116.6389 334° Northwest 305 351 10,400 -545 Level Los Angeles Center
Thu 09:12:18 AM 37.5922 -116.6722 338° Northwest 260 299 9,300 -1,131 Descending Los Angeles Center
Thu 09:13:19 AM 37.6547 -116.7056 337° Northwest 248 285 8,100 -1,131 Descending Los Angeles Center
Thu 09:14:20 AM 37.7131 -116.7372 337° Northwest 211 243 7,000 -893 Descending Los Angeles Center
Thu 09:15:20 AM 37.7503 -116.7561 338° Northwest 174 200 6,300 -632 Descending Los Angeles Center
Thu 09:16:33 AM 37.7856 -116.7742 338° Northwest 150 173 5,600 -575 Descending Los Angeles Center
Thu 09:18:00 AM 37.7833 -116.7667 142° Southeast  Level FlightAware Approximate

Login

Don't have an account? Register now (free) for customized features, flight alerts, and more!